Time;durP1;ratioP1;P1;durP2;ratioP2;P2;SDS_P1;SDS_P2;PMS_P1;PMS_P2;Temp;Humidity;BMP_temperature;BMP_pressure;BME280_temperature;BME280_humidity;BME280_pressure;Samples;Min_cycle;Max_cycle;Signal;HPM_P1;HPM_P2
2021/01/09 00:01:43;;;;;;;18.50;6.60;;;17.10;64.70;;;;;;5009352;28;20044;-69
2021/01/09 00:04:09;;;;;;;16.98;7.68;;;17.10;64.70;;;;;;5010317;28;20105;-69
2021/01/09 00:06:39;;;;;;;12.60;6.30;;;17.00;64.90;;;;;;5010110;28;20022;-69
2021/01/09 00:09:06;;;;;;;12.68;6.55;;;17.00;64.90;;;;;;5007918;28;20034;-69
2021/01/09 00:11:33;;;;;;;21.65;7.93;;;17.00;65.00;;;;;;5010524;28;20448;-68
2021/01/09 00:13:59;;;;;;;13.45;7.28;;;17.00;65.10;;;;;;5010124;28;20427;-69
2021/01/09 00:16:26;;;;;;;12.35;6.82;;;16.90;65.20;;;;;;5015450;28;20068;-69
2021/01/09 00:18:53;;;;;;;12.75;6.28;;;16.80;65.10;;;;;;5008468;28;20026;-69
2021/01/09 00:21:19;;;;;;;16.33;6.68;;;16.70;65.60;;;;;;5012342;28;20478;-69
2021/01/09 00:23:46;;;;;;;11.30;5.82;;;16.70;65.50;;;;;;5010307;28;20440;-68
2021/01/09 00:26:12;;;;;;;11.55;5.88;;;16.70;65.20;;;;;;5005881;28;20033;-69
2021/01/09 00:28:39;;;;;;;12.48;6.22;;;16.50;65.40;;;;;;5024576;28;20448;-68
2021/01/09 00:31:08;;;;;;;10.95;4.97;;;16.40;65.60;;;;;;5010149;28;20061;-69
2021/01/09 00:33:34;;;;;;;10.50;5.95;;;16.60;65.40;;;;;;5003497;28;20478;-69
2021/01/09 00:36:01;;;;;;;15.20;6.50;;;16.50;65.40;;;;;;5008181;28;20034;-69
2021/01/09 00:38:27;;;;;;;17.52;6.45;;;16.50;65.50;;;;;;5006914;28;20156;-71
2021/01/09 00:40:54;;;;;;;16.98;5.95;;;16.60;65.40;;;;;;5011992;28;20501;-70
2021/01/09 00:43:20;;;;;;;13.65;6.53;;;16.40;66.00;;;;;;5026019;28;20226;-72
2021/01/09 00:45:46;;;;;;;13.27;6.00;;;16.50;65.70;;;;;;5005527;28;20030;-70
2021/01/09 00:48:13;;;;;;;17.13;6.97;;;16.50;65.60;;;;;;5006181;28;20030;-71
2021/01/09 00:50:39;;;;;;;13.38;5.20;;;16.50;65.40;;;;;;5004043;28;20018;-70
2021/01/09 00:53:05;;;;;;;19.30;5.57;;;16.40;65.20;;;;;;4999661;28;20062;-70
2021/01/09 00:55:32;;;;;;;18.13;5.97;;;16.40;65.30;;;;;;5001616;28;20034;-70
2021/01/09 00:57:58;;;;;;;18.25;6.90;;;16.40;64.90;;;;;;4993935;28;20360;-70
2021/01/09 01:00:25;;;;;;;17.67;6.05;;;16.30;64.70;;;;;;4992030;28;20034;-71
2021/01/09 01:02:51;;;;;;;18.45;5.93;;;16.30;64.80;;;;;;4995174;28;20211;-71
2021/01/09 01:05:17;;;;;;;10.52;4.35;;;16.20;64.40;;;;;;4993860;28;20035;-70
2021/01/09 01:07:44;;;;;;;14.57;5.00;;;16.00;64.90;;;;;;5001217;28;20033;-72
2021/01/09 01:10:12;;;;;;;19.25;6.10;;;15.90;65.10;;;;;;4995671;28;20449;-71
2021/01/09 01:12:38;;;;;;;15.13;5.47;;;15.80;65.40;;;;;;4994286;28;20034;-70
2021/01/09 01:15:05;;;;;;;15.88;6.22;;;15.70;64.40;;;;;;4983978;28;20026;-70
2021/01/09 01:17:31;;;;;;;19.67;6.13;;;15.80;64.10;;;;;;4996084;28;20034;-70
2021/01/09 01:19:58;;;;;;;11.95;4.78;;;15.60;64.20;;;;;;4995403;28;20022;-69
2021/01/09 01:22:24;;;;;;;24.55;6.45;;;15.30;65.20;;;;;;4993899;28;20381;-70
2021/01/09 01:24:51;;;;;;;16.83;5.55;;;15.20;65.70;;;;;;4989626;28;20452;-70
2021/01/09 01:27:17;;;;;;;13.00;5.70;;;15.00;65.80;;;;;;4984082;28;20052;-69
2021/01/09 01:29:44;;;;;;;18.73;5.82;;;15.00;65.10;;;;;;5000640;28;21827;-70
2021/01/09 01:32:10;;;;;;;14.30;5.60;;;15.10;65.00;;;;;;5000065;28;20015;-69
2021/01/09 01:34:37;;;;;;;13.52;5.35;;;15.10;65.00;;;;;;4987738;28;20089;-69
2021/01/09 01:37:12;;;;;;;16.58;5.45;;;14.90;64.60;;;;;;4995084;28;20034;-71
2021/01/09 01:39:39;;;;;;;27.40;8.80;;;14.80;65.00;;;;;;4991209;28;20078;-70
2021/01/09 01:42:06;;;;;;;15.13;4.90;;;14.70;65.10;;;;;;4991832;28;20033;-70
2021/01/09 01:44:32;;;;;;;15.00;5.15;;;14.50;65.20;;;;;;4993444;28;20375;-71
2021/01/09 01:47:01;;;;;;;16.92;5.55;;;14.40;66.70;;;;;;5000717;28;20022;-70
2021/01/09 01:49:29;;;;;;;14.25;6.00;;;14.20;66.80;;;;;;4994082;28;20080;-70
2021/01/09 01:51:56;;;;;;;13.50;5.53;;;14.20;66.30;;;;;;4991325;28;20097;-70
2021/01/09 01:54:23;;;;;;;15.35;6.38;;;14.20;66.20;;;;;;5004308;28;20440;-70
2021/01/09 01:56:53;;;;;;;17.08;5.88;;;14.10;66.20;;;;;;4985678;28;20057;-70
2021/01/09 01:59:19;;;;;;;16.67;6.10;;;14.00;66.60;;;;;;4990898;28;20034;-70
2021/01/09 02:01:49;;;;;;;13.27;6.78;;;13.90;67.10;;;;;;4988881;28;20365;-70
2021/01/09 02:04:16;;;;;;;17.60;6.28;;;13.80;66.50;;;;;;4989498;28;20018;-72
2021/01/09 02:06:43;;;;;;;26.60;8.20;;;14.00;67.20;;;;;;4988941;28;20049;-71
2021/01/09 02:09:15;;;;;;;25.98;9.45;;;14.00;66.70;;;;;;4992269;28;20464;-70
2021/01/09 02:12:06;;;;;;;15.73;7.90;;;13.90;67.10;;;;;;4989532;28;20487;-70
2021/01/09 02:14:40;;;;;;;26.55;7.85;;;13.70;66.80;;;;;;4985631;28;20354;-69
2021/01/09 02:17:07;;;;;;;22.23;7.20;;;13.70;66.90;;;;;;4990938;28;20356;-70
2021/01/09 02:19:39;;;;;;;18.55;6.53;;;13.70;67.80;;;;;;4986733;28;20018;-70
2021/01/09 02:22:10;;;;;;;14.88;8.02;;;13.60;68.40;;;;;;5024967;28;20341;-70
2021/01/09 02:24:37;;;;;;;16.17;7.78;;;13.40;68.10;;;;;;4987882;28;20085;-70
2021/01/09 02:27:06;;;;;;;21.70;7.93;;;13.30;68.10;;;;;;5000570;28;20359;-70
2021/01/09 02:29:36;;;;;;;21.00;7.70;;;13.40;68.10;;;;;;4992197;28;20025;-71
2021/01/09 02:32:07;;;;;;;19.83;7.80;;;13.30;68.40;;;;;;4993572;28;20448;-70
2021/01/09 02:34:45;;;;;;;15.23;5.15;;;13.20;68.70;;;;;;4995844;28;20027;-70
2021/01/09 02:37:12;;;;;;;16.35;6.07;;;13.00;69.30;;;;;;4989193;28;20027;-69
2021/01/09 02:39:39;;;;;;;21.02;7.50;;;12.90;69.30;;;;;;4988737;28;20078;-69
2021/01/09 02:42:05;;;;;;;21.23;8.40;;;12.90;68.40;;;;;;4985181;28;20023;-70
2021/01/09 02:44:32;;;;;;;21.30;7.93;;;13.00;68.60;;;;;;4994844;28;20038;-69
2021/01/09 02:47:00;;;;;;;18.55;7.22;;;13.10;68.50;;;;;;4996462;28;20037;-70
2021/01/09 02:49:26;;;;;;;13.07;6.82;;;13.00;68.50;;;;;;4993243;28;20105;-70
2021/01/09 02:51:53;;;;;;;13.38;6.55;;;12.80;68.70;;;;;;5006968;28;20023;-72
2021/01/09 02:54:19;;;;;;;18.73;8.57;;;12.70;69.40;;;;;;4985796;28;20030;-70
2021/01/09 02:56:45;;;;;;;17.35;9.07;;;12.70;68.60;;;;;;4995808;28;20096;-70
2021/01/09 02:59:12;;;;;;;31.85;10.55;;;12.80;68.70;;;;;;4993970;28;20045;-70
2021/01/09 03:01:38;;;;;;;30.08;9.57;;;12.70;68.40;;;;;;4993340;28;20034;-69
2021/01/09 03:04:04;;;;;;;24.27;9.23;;;12.70;69.60;;;;;;4988803;28;20109;-69
2021/01/09 03:06:31;;;;;;;21.40;9.05;;;12.70;69.10;;;;;;4997387;28;21401;-70
2021/01/09 03:08:57;;;;;;;20.75;8.95;;;12.70;69.80;;;;;;4995705;28;20056;-69
2021/01/09 03:11:24;;;;;;;22.80;9.45;;;12.80;69.50;;;;;;4994307;28;20480;-69
2021/01/09 03:13:50;;;;;;;19.48;8.75;;;12.70;69.50;;;;;;4993577;28;20169;-70
2021/01/09 03:16:17;;;;;;;22.27;8.38;;;12.80;70.00;;;;;;5010785;28;20083;-72
2021/01/09 03:18:43;;;;;;;19.40;8.82;;;12.80;70.00;;;;;;4993997;28;20034;-71
2021/01/09 03:21:09;;;;;;;17.83;7.32;;;12.70;70.80;;;;;;5003194;28;20030;-71
2021/01/09 03:23:36;;;;;;;26.73;8.93;;;12.60;71.30;;;;;;4996803;28;20026;-72
2021/01/09 03:26:02;;;;;;;17.45;8.23;;;12.60;71.60;;;;;;4993752;28;20080;-71
2021/01/09 03:28:29;;;;;;;24.90;8.80;;;12.70;70.80;;;;;;5003755;28;20488;-71
2021/01/09 03:30:55;;;;;;;17.75;8.52;;;12.70;70.50;;;;;;5002577;28;20355;-69
2021/01/09 03:33:22;;;;;;;24.63;8.77;;;12.70;70.50;;;;;;4993370;28;20465;-71
2021/01/09 03:35:49;;;;;;;22.23;8.23;;;12.60;70.70;;;;;;4991757;28;20523;-70
2021/01/09 03:38:15;;;;;;;18.70;9.05;;;12.70;70.30;;;;;;4999182;28;20045;-70
2021/01/09 03:40:41;;;;;;;25.23;8.60;;;12.70;70.90;;;;;;4991757;28;20026;-68
2021/01/09 03:43:08;;;;;;;15.88;8.13;;;12.70;70.10;;;;;;4988289;28;20049;-69
2021/01/09 03:45:34;;;;;;;17.88;9.02;;;12.70;70.40;;;;;;4993687;28;20065;-70
2021/01/09 03:48:00;;;;;;;17.88;8.10;;;12.70;71.30;;;;;;4994007;28;20037;-70
2021/01/09 03:50:27;;;;;;;23.55;7.90;;;12.60;71.40;;;;;;4994230;28;20568;-71
2021/01/09 03:52:53;;;;;;;22.77;8.15;;;12.60;70.80;;;;;;4994459;28;20038;-70
2021/01/09 03:55:20;;;;;;;23.48;10.13;;;12.60;71.50;;;;;;4996631;28;20031;-70
2021/01/09 03:57:46;;;;;;;20.15;10.88;;;12.60;71.40;;;;;;4995412;28;20121;-71
2021/01/09 04:00:13;;;;;;;32.58;12.40;;;12.60;71.00;;;;;;4991303;28;20027;-72
2021/01/09 04:02:40;;;;;;;28.52;11.32;;;12.60;70.60;;;;;;4988320;28;20022;-70
2021/01/09 04:05:08;;;;;;;29.60;10.43;;;12.60;70.80;;;;;;4995308;28;20097;-71
2021/01/09 04:07:35;;;;;;;25.73;11.35;;;12.60;70.60;;;;;;4993712;28;20049;-70
2021/01/09 04:10:01;;;;;;;25.27;10.10;;;12.60;70.60;;;;;;5000933;28;20355;-71
2021/01/09 04:12:28;;;;;;;24.30;10.20;;;12.60;70.40;;;;;;4992629;28;20022;-71
2021/01/09 04:14:54;;;;;;;36.55;11.90;;;12.60;70.20;;;;;;4994697;28;20439;-72
2021/01/09 04:17:20;;;;;;;38.20;12.68;;;12.50;70.50;;;;;;4993664;28;20471;-71
2021/01/09 04:19:47;;;;;;;34.90;12.10;;;12.40;70.20;;;;;;4989140;28;20069;-70
2021/01/09 04:22:13;;;;;;;28.77;12.55;;;12.40;70.70;;;;;;4990306;28;20034;-70
2021/01/09 04:24:40;;;;;;;30.63;12.25;;;12.30;70.70;;;;;;4989904;28;20352;-69
2021/01/09 04:27:06;;;;;;;31.00;12.57;;;12.20;70.60;;;;;;4990009;28;20026;-73
2021/01/09 04:29:32;;;;;;;24.77;12.23;;;12.10;71.60;;;;;;4987787;28;20037;-71
2021/01/09 04:31:59;;;;;;;25.08;12.07;;;12.10;71.90;;;;;;4995072;28;20217;-71
2021/01/09 04:34:26;;;;;;;33.03;13.50;;;12.00;71.70;;;;;;4994163;28;20014;-72
2021/01/09 04:36:53;;;;;;;30.55;13.00;;;12.00;71.20;;;;;;4993513;28;20116;-71
2021/01/09 04:39:20;;;;;;;28.17;12.75;;;11.90;71.90;;;;;;4995912;28;20034;-71
2021/01/09 04:41:48;;;;;;;23.30;12.55;;;11.80;70.80;;;;;;5002388;28;20400;-71
2021/01/09 04:44:15;;;;;;;23.77;13.75;;;11.70;71.70;;;;;;4990326;28;20022;-71
2021/01/09 04:46:51;;;;;;;46.63;16.02;;;11.70;71.30;;;;;;4992098;28;20030;-71
2021/01/09 04:49:25;;;;;;;41.85;16.98;;;11.70;71.00;;;;;;4992839;28;20042;-70
2021/01/09 04:51:52;;;;;;;40.47;16.85;;;11.70;71.10;;;;;;4987479;28;20026;-69
2021/01/09 04:54:21;;;;;;;37.22;17.02;;;11.60;71.30;;;;;;4989970;28;20026;-69
2021/01/09 04:56:49;;;;;;;35.17;16.83;;;11.60;72.00;;;;;;4995638;28;20045;-70
2021/01/09 04:59:17;;;;;;;27.80;14.93;;;11.50;71.40;;;;;;4997244;28;20036;-72
2021/01/09 05:01:46;;;;;;;36.92;19.15;;;11.40;72.20;;;;;;4994392;28;20038;-69
2021/01/09 05:04:16;;;;;;;41.80;20.20;;;11.40;71.60;;;;;;4987530;28;20097;-70
2021/01/09 05:06:44;;;;;;;35.53;18.45;;;11.40;71.50;;;;;;4989182;28;20046;-69
2021/01/09 05:09:12;;;;;;;43.60;20.05;;;11.30;71.20;;;;;;4995657;28;20487;-69
2021/01/09 05:11:40;;;;;;;40.40;20.45;;;11.40;71.80;;;;;;4993079;28;20038;-69
2021/01/09 05:14:07;;;;;;;37.65;20.65;;;11.20;72.30;;;;;;5027256;28;20118;-70
2021/01/09 05:16:38;;;;;;;41.97;19.70;;;11.20;72.00;;;;;;4994327;28;20022;-69
2021/01/09 05:19:07;;;;;;;46.78;23.40;;;11.10;71.60;;;;;;4993688;28;20037;-70
2021/01/09 05:21:35;;;;;;;49.03;25.15;;;11.10;71.80;;;;;;4997349;28;20485;-69
2021/01/09 05:24:03;;;;;;;51.13;26.48;;;11.10;71.80;;;;;;5001115;28;20138;-69
2021/01/09 05:26:30;;;;;;;44.60;25.67;;;11.10;71.80;;;;;;4992421;28;20768;-69
2021/01/09 05:29:01;;;;;;;47.00;28.08;;;11.00;72.20;;;;;;4991645;28;20039;-69
2021/01/09 05:31:35;;;;;;;48.60;28.17;;;11.00;71.90;;;;;;4987034;28;20058;-69
2021/01/09 05:34:03;;;;;;;43.35;28.52;;;11.00;71.80;;;;;;4989078;28;20468;-69
2021/01/09 05:36:29;;;;;;;50.28;26.55;;;10.90;72.10;;;;;;5004662;28;20045;-69
2021/01/09 05:38:56;;;;;;;42.15;24.25;;;10.90;72.50;;;;;;4988732;28;20053;-69
2021/01/09 05:41:25;;;;;;;50.20;29.42;;;10.80;73.20;;;;;;4993643;28;20034;-69
2021/01/09 05:44:05;;;;;;;55.55;31.65;;;10.80;72.80;;;;;;4991052;28;20029;-69
2021/01/09 05:46:39;;;;;;;51.88;29.75;;;10.90;72.80;;;;;;4991865;28;20097;-69
2021/01/09 05:49:07;;;;;;;54.97;33.85;;;10.80;72.20;;;;;;4995149;28;20512;-70
2021/01/09 05:51:35;;;;;;;41.67;26.83;;;10.80;72.50;;;;;;4983874;28;20097;-69
2021/01/09 05:54:02;;;;;;;41.58;27.55;;;10.80;73.00;;;;;;4983373;28;20045;-69
2021/01/09 05:56:28;;;;;;;54.83;32.17;;;10.70;73.40;;;;;;4988625;28;20404;-69
2021/01/09 05:58:56;;;;;;;48.42;29.48;;;10.70;72.80;;;;;;4978060;28;20038;-69
2021/01/09 06:01:28;;;;;;;47.78;31.08;;;10.60;73.30;;;;;;4982291;28;20027;-69
2021/01/09 06:04:15;;;;;;;40.88;29.08;;;10.50;73.00;;;;;;5024783;28;20490;-70
2021/01/09 06:07:06;;;;;;;62.42;32.40;;;10.50;72.90;;;;;;4981560;28;20042;-69
2021/01/09 06:09:37;;;;;;;48.80;33.38;;;10.50;72.80;;;;;;4988728;28;20029;-69
2021/01/09 06:12:06;;;;;;;42.83;26.45;;;10.50;73.00;;;;;;4980173;28;20019;-70
2021/01/09 06:14:35;;;;;;;47.65;29.67;;;10.40;73.70;;;;;;4989960;28;20029;-70
2021/01/09 06:17:11;;;;;;;52.28;30.48;;;10.50;73.00;;;;;;4990298;28;20129;-69
2021/01/09 06:19:39;;;;;;;42.50;26.40;;;10.40;72.40;;;;;;4986604;28;20102;-69
2021/01/09 06:22:08;;;;;;;41.00;29.40;;;10.40;73.20;;;;;;4991507;28;20026;-69
2021/01/09 06:24:34;;;;;;;65.72;35.47;;;10.30;72.80;;;;;;4990827;28;20022;-70
2021/01/09 06:27:01;;;;;;;50.10;35.17;;;10.30;72.80;;;;;;4991331;28;20464;-69
2021/01/09 06:29:29;;;;;;;50.63;35.67;;;10.40;73.10;;;;;;4990869;28;20031;-71
2021/01/09 06:32:04;;;;;;;56.65;36.22;;;10.30;72.90;;;;;;4991779;28;20400;-70
2021/01/09 06:34:32;;;;;;;67.70;37.20;;;10.30;73.00;;;;;;4991434;28;20459;-71
2021/01/09 06:37:21;;;;;;;53.80;38.25;;;10.30;72.80;;;;;;4994101;28;20109;-71
2021/01/09 06:39:49;;;;;;;55.47;35.38;;;10.30;73.00;;;;;;4985878;28;20026;-71
2021/01/09 06:42:18;;;;;;;67.88;40.65;;;10.20;73.20;;;;;;4990999;28;20448;-71
2021/01/09 06:44:50;;;;;;;63.30;40.28;;;10.30;73.40;;;;;;4985643;28;20022;-71
2021/01/09 06:47:30;;;;;;;63.05;41.88;;;10.20;73.40;;;;;;4994646;28;20471;-71
2021/01/09 06:50:18;;;;;;;62.78;42.47;;;10.20;73.40;;;;;;4991847;28;20026;-71
2021/01/09 06:52:57;;;;;;;69.00;43.25;;;10.20;73.50;;;;;;5002083;28;20187;-71
2021/01/09 06:55:39;;;;;;;67.72;41.40;;;10.10;73.40;;;;;;4990533;28;20018;-71
2021/01/09 06:58:07;;;;;;;69.88;43.80;;;10.00;73.80;;;;;;4993142;28;20026;-70
2021/01/09 07:00:34;;;;;;;68.28;45.10;;;10.00;73.70;;;;;;4991670;28;20437;-71
2021/01/09 07:03:15;;;;;;;72.50;45.35;;;10.00;73.90;;;;;;4996802;28;20443;-72
2021/01/09 07:05:49;;;;;;;65.20;45.33;;;10.00;73.80;;;;;;4991689;28;20349;-70
2021/01/09 07:08:35;;;;;;;83.03;47.38;;;10.00;73.70;;;;;;4990441;28;20030;-72
2021/01/09 07:11:07;;;;;;;78.30;48.30;;;10.10;73.60;;;;;;4986965;28;20029;-71
2021/01/09 07:13:33;;;;;;;84.05;50.70;;;10.20;73.70;;;;;;4992021;28;20034;-71
2021/01/09 07:16:14;;;;;;;85.13;55.78;;;10.30;74.90;;;;;;4996474;28;20037;-70
2021/01/09 07:18:48;;;;;;;86.32;54.55;;;10.50;73.80;;;;;;5005172;28;20030;-70
2021/01/09 07:21:20;;;;;;;84.78;53.08;;;10.40;73.40;;;;;;4988540;28;20105;-70
2021/01/09 07:23:56;;;;;;;81.50;51.60;;;10.40;73.80;;;;;;4992271;28;20027;-72
2021/01/09 07:26:24;;;;;;;80.72;50.22;;;10.30;73.60;;;;;;4992449;28;20053;-70
2021/01/09 07:28:52;;;;;;;85.72;52.50;;;10.20;74.20;;;;;;4987760;28;20081;-71
2021/01/09 07:31:24;;;;;;;85.28;56.15;;;10.40;74.40;;;;;;4988113;28;20030;-70
2021/01/09 07:33:56;;;;;;;89.57;55.47;;;10.40;74.40;;;;;;4988424;28;20069;-70
2021/01/09 07:36:32;;;;;;;90.78;58.28;;;10.50;74.10;;;;;;4989958;28;20038;-70
2021/01/09 07:39:04;;;;;;;93.85;59.78;;;10.40;74.20;;;;;;4988512;28;20037;-70
2021/01/09 07:41:38;;;;;;;87.25;54.90;;;10.30;74.10;;;;;;4993481;28;20022;-70
2021/01/09 07:44:21;;;;;;;94.53;56.88;;;10.30;74.50;;;;;;4991307;28;20030;-70
2021/01/09 07:47:00;;;;;;;101.30;56.67;;;10.30;74.60;;;;;;4987743;28;20404;-70
2021/01/09 07:49:37;;;;;;;90.47;55.17;;;10.30;74.30;;;;;;4991647;28;20034;-70
2021/01/09 07:52:06;;;;;;;102.75;58.70;;;10.20;74.40;;;;;;4987476;28;20030;-71
2021/01/09 07:54:47;;;;;;;85.38;54.30;;;10.20;74.40;;;;;;4985548;28;20019;-71
2021/01/09 07:57:19;;;;;;;85.35;53.05;;;10.00;74.90;;;;;;4988156;28;20041;-70
2021/01/09 07:59:55;;;;;;;79.57;50.90;;;9.90;75.00;;;;;;5000965;28;20154;-73
2021/01/09 08:02:34;;;;;;;87.72;52.95;;;9.90;74.90;;;;;;4976091;28;20041;-70
2021/01/09 08:05:13;;;;;;;78.55;50.13;;;9.90;74.90;;;;;;4985778;28;20130;-70
2021/01/09 08:07:52;;;;;;;76.07;47.78;;;9.90;75.20;;;;;;4996799;28;20026;-71
2021/01/09 08:10:25;;;;;;;64.80;40.78;;;9.70;75.70;;;;;;4988299;28;20034;-70
2021/01/09 08:12:59;;;;;;;80.35;49.05;;;9.70;75.80;;;;;;4995836;28;20459;-73
2021/01/09 08:15:27;;;;;;;69.18;45.63;;;9.70;76.10;;;;;;4986583;28;20030;-70
2021/01/09 08:17:54;;;;;;;80.82;50.83;;;9.70;75.90;;;;;;4992201;28;20115;-71
2021/01/09 08:20:21;;;;;;;77.60;48.10;;;9.80;75.90;;;;;;4998694;28;20030;-70
2021/01/09 08:23:08;;;;;;;80.43;49.97;;;9.80;75.70;;;;;;4998624;28;20027;-71
2021/01/09 08:25:53;;;;;;;76.40;49.20;;;9.90;75.60;;;;;;4997535;28;20022;-71
2021/01/09 08:28:20;;;;;;;72.00;47.15;;;10.00;75.50;;;;;;4992395;28;20364;-71
2021/01/09 08:30:47;;;;;;;66.40;44.70;;;10.00;75.80;;;;;;4991033;28;20022;-70
2021/01/09 08:33:16;;;;;;;65.80;43.03;;;10.00;76.30;;;;;;4996936;28;20097;-71
2021/01/09 08:35:50;;;;;;;68.38;41.22;;;9.90;76.30;;;;;;4993940;28;20081;-71
2021/01/09 08:38:18;;;;;;;74.68;44.50;;;10.00;76.40;;;;;;4998002;28;20348;-71
2021/01/09 08:40:44;;;;;;;73.93;42.42;;;10.10;76.20;;;;;;4997928;28;20027;-71
2021/01/09 08:43:13;;;;;;;64.88;42.90;;;10.10;75.90;;;;;;4995740;28;20087;-71
2021/01/09 08:45:39;;;;;;;77.38;45.15;;;10.10;75.60;;;;;;4992921;28;20411;-71
2021/01/09 08:48:09;;;;;;;71.03;45.50;;;10.20;75.60;;;;;;4997123;28;20088;-70
2021/01/09 08:50:44;;;;;;;74.88;48.30;;;10.30;75.30;;;;;;4998052;28;20019;-71
2021/01/09 08:53:12;;;;;;;75.90;48.38;;;10.50;75.00;;;;;;4997099;28;20029;-71
2021/01/09 08:55:39;;;;;;;83.68;51.95;;;10.40;74.70;;;;;;4998084;28;20061;-71
2021/01/09 08:58:16;;;;;;;83.20;52.65;;;10.40;74.90;;;;;;4997141;28;20157;-71
2021/01/09 09:00:46;;;;;;;73.88;52.40;;;10.50;74.60;;;;;;4996835;28;20117;-70
2021/01/09 09:03:15;;;;;;;70.03;46.38;;;10.40;75.10;;;;;;4997953;28;20030;-71
2021/01/09 09:05:42;;;;;;;65.30;44.03;;;10.30;75.80;;;;;;4988868;28;20039;-70
2021/01/09 09:08:12;;;;;;;76.63;49.67;;;10.30;76.00;;;;;;4994547;28;20034;-70
2021/01/09 09:10:42;;;;;;;75.95;49.15;;;10.30;75.80;;;;;;4988156;28;20045;-69
2021/01/09 09:13:19;;;;;;;70.50;45.03;;;10.30;75.80;;;;;;4983802;28;20077;-71
2021/01/09 09:15:46;;;;;;;71.97;46.97;;;10.30;75.60;;;;;;4991811;28;20022;-71
2021/01/09 09:18:13;;;;;;;72.28;46.03;;;10.30;75.40;;;;;;5006417;28;20049;-71
2021/01/09 09:20:44;;;;;;;64.88;43.78;;;10.50;75.10;;;;;;4996269;28;20030;-70
2021/01/09 09:23:29;;;;;;;73.15;45.85;;;10.60;74.90;;;;;;4996898;28;20030;-71
2021/01/09 09:26:05;;;;;;;72.30;46.67;;;10.50;74.10;;;;;;4995955;28;20321;-70
2021/01/09 09:28:42;;;;;;;69.97;46.28;;;10.40;74.60;;;;;;4995780;28;20475;-71
2021/01/09 09:31:20;;;;;;;63.17;42.30;;;10.40;74.90;;;;;;4997539;28;20105;-71
2021/01/09 09:34:16;;;;;;;71.38;44.70;;;10.40;74.70;;;;;;4996592;28;20345;-71
2021/01/09 09:36:48;;;;;;;79.95;47.88;;;10.30;74.60;;;;;;4996980;28;20034;-70
2021/01/09 09:39:17;;;;;;;63.08;42.83;;;10.40;75.00;;;;;;5014273;28;20061;-71
2021/01/09 09:41:48;;;;;;;71.15;47.22;;;10.40;74.60;;;;;;4996891;28;20161;-71
2021/01/09 09:44:14;;;;;;;70.55;43.55;;;10.30;74.50;;;;;;4997301;28;20031;-70
2021/01/09 09:46:41;;;;;;;63.75;43.22;;;10.20;74.80;;;;;;4996874;28;20392;-71
2021/01/09 09:49:08;;;;;;;60.33;38.95;;;10.20;74.70;;;;;;4996919;28;20029;-70
2021/01/09 09:51:35;;;;;;;68.10;41.28;;;10.00;75.30;;;;;;4996663;28;20452;-70
2021/01/09 09:54:03;;;;;;;59.60;41.40;;;9.90;75.10;;;;;;4997158;28;20041;-70
2021/01/09 09:56:42;;;;;;;75.55;44.17;;;9.80;75.30;;;;;;4995944;28;20092;-70
2021/01/09 09:59:10;;;;;;;66.57;43.28;;;9.90;75.10;;;;;;4996757;28;20056;-71
2021/01/09 10:01:37;;;;;;;65.85;42.47;;;9.80;75.00;;;;;;4996537;28;20034;-70
2021/01/09 10:04:13;;;;;;;67.55;43.45;;;9.80;75.00;;;;;;4996536;28;20430;-71
2021/01/09 10:06:41;;;;;;;64.15;40.30;;;9.70;74.90;;;;;;4998091;28;20057;-70
2021/01/09 10:09:18;;;;;;;64.22;41.40;;;9.70;74.70;;;;;;5008837;28;20030;-70
2021/01/09 10:11:45;;;;;;;59.50;39.75;;;9.60;75.10;;;;;;4996655;28;20363;-71
2021/01/09 10:14:12;;;;;;;54.22;37.45;;;9.50;75.10;;;;;;4995394;28;20066;-70
2021/01/09 10:16:39;;;;;;;67.32;42.53;;;9.40;75.20;;;;;;4996275;28;20113;-70
2021/01/09 10:19:06;;;;;;;51.92;36.38;;;9.40;75.30;;;;;;4995561;28;20030;-71
2021/01/09 10:21:33;;;;;;;66.22;42.60;;;9.30;75.30;;;;;;4996513;28;20038;-73
2021/01/09 10:24:00;;;;;;;62.78;41.25;;;9.30;75.50;;;;;;4997800;28;20026;-70
2021/01/09 10:26:28;;;;;;;59.80;41.65;;;9.30;75.20;;;;;;4997036;28;20034;-70
2021/01/09 10:28:55;;;;;;;61.72;40.60;;;9.30;74.90;;;;;;4995173;28;20064;-70
2021/01/09 10:31:41;;;;;;;56.05;39.80;;;9.20;75.00;;;;;;4994860;28;20116;-70
2021/01/09 10:34:09;;;;;;;56.97;36.35;;;9.10;75.20;;;;;;4996473;28;20413;-70
2021/01/09 10:36:37;;;;;;;63.80;39.72;;;9.10;75.30;;;;;;4995709;28;20050;-70
2021/01/09 10:39:05;;;;;;;55.17;37.78;;;9.00;75.00;;;;;;4994430;28;20085;-70
2021/01/09 10:41:32;;;;;;;67.10;44.05;;;9.10;74.90;;;;;;4995664;28;20430;-70
2021/01/09 10:43:58;;;;;;;76.70;48.60;;;9.10;75.20;;;;;;4995110;28;20032;-70
2021/01/09 10:46:28;;;;;;;70.30;43.55;;;9.10;75.20;;;;;;4988001;28;20077;-71
2021/01/09 10:48:55;;;;;;;75.75;46.05;;;9.30;74.90;;;;;;4995817;28;20018;-71
2021/01/09 10:51:23;;;;;;;85.35;48.33;;;9.30;74.60;;;;;;4995675;28;20363;-71
2021/01/09 10:53:50;;;;;;;82.30;50.40;;;9.30;74.50;;;;;;4994988;28;20026;-71
2021/01/09 10:56:17;;;;;;;86.72;52.08;;;9.20;74.70;;;;;;4995511;28;20084;-70
2021/01/09 10:58:43;;;;;;;84.85;48.28;;;9.20;75.10;;;;;;4995700;28;20037;-70
2021/01/09 11:01:10;;;;;;;80.25;49.83;;;9.10;75.70;;;;;;4995025;28;20490;-70
2021/01/09 11:03:40;;;;;;;85.30;52.13;;;9.20;75.30;;;;;;4996036;28;20083;-70
2021/01/09 11:06:06;;;;;;;85.75;51.17;;;9.20;74.90;;;;;;4994413;28;20079;-71
2021/01/09 11:08:33;;;;;;;82.82;49.38;;;9.20;74.90;;;;;;4995557;28;20023;-70
2021/01/09 11:10:59;;;;;;;77.20;48.75;;;9.20;75.10;;;;;;4993513;28;20366;-70
2021/01/09 11:13:25;;;;;;;79.13;50.22;;;9.20;75.10;;;;;;4995351;28;20026;-70
2021/01/09 11:15:52;;;;;;;81.85;48.65;;;9.20;74.70;;;;;;4992938;28;20026;-70
2021/01/09 11:18:19;;;;;;;77.75;43.17;;;9.00;74.80;;;;;;4993088;28;20448;-70
2021/01/09 11:20:53;;;;;;;71.05;46.08;;;8.80;75.50;;;;;;4995139;28;20045;-70
2021/01/09 11:23:20;;;;;;;73.75;47.75;;;8.70;75.50;;;;;;5003950;28;20022;-71
2021/01/09 11:25:48;;;;;;;81.00;48.35;;;8.90;75.60;;;;;;4995488;28;20080;-70
2021/01/09 11:28:15;;;;;;;82.15;48.80;;;8.90;75.40;;;;;;4995191;28;20041;-70
2021/01/09 11:30:45;;;;;;;69.93;42.88;;;8.80;75.60;;;;;;4995823;28;20034;-71
2021/01/09 11:33:11;;;;;;;55.17;35.60;;;8.70;75.70;;;;;;4993679;28;20030;-71
2021/01/09 11:35:38;;;;;;;66.38;39.72;;;8.60;75.90;;;;;;4995317;28;20037;-70
2021/01/09 11:38:05;;;;;;;60.42;38.50;;;8.60;75.90;;;;;;4995242;28;20116;-70
2021/01/09 11:40:32;;;;;;;54.90;33.72;;;8.60;75.80;;;;;;4994550;28;20027;-71
2021/01/09 11:42:58;;;;;;;66.68;37.97;;;8.50;75.90;;;;;;4995224;28;20038;-70
2021/01/09 11:45:24;;;;;;;63.92;39.65;;;8.40;75.90;;;;;;4995186;28;20026;-70
2021/01/09 11:47:51;;;;;;;73.18;43.53;;;8.50;75.90;;;;;;4994212;28;20113;-70
2021/01/09 11:50:18;;;;;;;55.95;36.10;;;8.60;75.60;;;;;;4994947;28;20030;-70
2021/01/09 11:52:44;;;;;;;67.32;38.90;;;8.50;75.50;;;;;;4995552;28;20352;-70
2021/01/09 11:55:11;;;;;;;57.17;37.28;;;8.40;75.70;;;;;;4995028;28;20030;-70
2021/01/09 11:57:38;;;;;;;60.45;37.75;;;8.40;75.70;;;;;;4995073;28;20038;-70
2021/01/09 12:00:11;;;;;;;59.22;36.20;;;8.30;75.60;;;;;;4994877;28;20037;-70
2021/01/09 12:02:38;;;;;;;69.30;42.08;;;8.30;75.60;;;;;;4994851;28;20031;-70
2021/01/09 12:05:08;;;;;;;58.22;37.45;;;8.30;75.20;;;;;;4994866;28;20073;-70
2021/01/09 12:07:35;;;;;;;60.10;36.65;;;8.20;75.20;;;;;;4992541;28;20068;-70
2021/01/09 12:10:03;;;;;;;67.85;41.22;;;8.20;75.50;;;;;;4994185;28;20077;-70
2021/01/09 12:12:30;;;;;;;51.28;31.27;;;8.10;75.60;;;;;;4994567;28;20085;-70
2021/01/09 12:14:56;;;;;;;45.88;30.90;;;8.00;75.70;;;;;;4994307;28;20022;-70
2021/01/09 12:17:22;;;;;;;58.97;39.03;;;8.00;75.90;;;;;;4994828;28;20030;-70
2021/01/09 12:19:49;;;;;;;64.05;38.35;;;8.10;75.70;;;;;;4994926;28;20349;-70
2021/01/09 12:22:15;;;;;;;56.65;36.70;;;8.10;75.80;;;;;;4994839;28;20019;-70
2021/01/09 12:24:41;;;;;;;58.05;36.15;;;8.00;75.60;;;;;;4994579;28;20027;-70
2021/01/09 12:27:09;;;;;;;59.28;37.05;;;8.00;75.60;;;;;;4994690;28;20041;-70
2021/01/09 12:29:35;;;;;;;61.15;37.35;;;8.00;75.60;;;;;;4994534;28;20034;-70
2021/01/09 12:32:02;;;;;;;72.05;39.30;;;8.10;75.70;;;;;;4996128;28;20047;-71
2021/01/09 12:34:29;;;;;;;64.88;38.75;;;8.20;75.00;;;;;;4995777;28;20029;-70
2021/01/09 12:36:55;;;;;;;61.90;38.08;;;8.10;75.40;;;;;;4995087;28;20467;-71
2021/01/09 12:39:22;;;;;;;64.95;37.63;;;8.10;75.70;;;;;;4994590;28;20035;-70
2021/01/09 12:41:48;;;;;;;55.90;36.08;;;8.10;76.20;;;;;;4994743;28;20030;-70
2021/01/09 12:44:15;;;;;;;63.97;37.38;;;8.30;76.00;;;;;;4994793;28;20027;-71